Time;durP1;ratioP1;P1;durP2;ratioP2;P2;SDS_P1;SDS_P2;PMS_P1;PMS_P2;Temp;Humidity;BMP_temperature;BMP_pressure;BME280_temperature;BME280_humidity;BME280_pressure;Samples;Min_cycle;Max_cycle;Signal;HPM_P1;HPM_P2
2022/02/17 00:00:09;;;;;;;22.98;14.93;;;;;;;10.69;59.53;101330.16;1766302;81;20978;-68
2022/02/17 00:02:41;;;;;;;27.05;15.08;;;;;;;10.70;59.51;101329.26;1738880;82;21005;-68
2022/02/17 00:05:09;;;;;;;22.15;14.25;;;;;;;10.70;59.53;101321.45;1766019;81;21017;-67
2022/02/17 00:07:37;;;;;;;33.83;17.15;;;;;;;10.68;59.55;101314.11;1765869;81;21013;-71
2022/02/17 00:10:07;;;;;;;33.70;15.98;;;;;;;10.68;59.56;101314.11;1739941;82;21013;-71
2022/02/17 00:12:34;;;;;;;27.00;15.18;;;;;;;10.69;59.50;101313.23;1766008;80;20997;-69
2022/02/17 00:15:01;;;;;;;27.80;15.43;;;;;;;10.67;59.52;101298.09;1763835;80;21017;-68
2022/02/17 00:17:27;;;;;;;27.65;15.00;;;;;;;10.68;59.51;101286.78;1765684;81;21036;-68
2022/02/17 00:19:54;;;;;;;28.70;15.35;;;;;;;10.65;59.54;101278.56;1765889;81;21063;-68
2022/02/17 00:22:20;;;;;;;28.92;15.43;;;;;;;10.65;59.60;101273.83;1766187;81;21056;-72
2022/02/17 00:24:47;;;;;;;27.00;15.15;;;;;;;10.64;59.63;101274.69;1766078;81;21021;-70
2022/02/17 00:27:13;;;;;;;25.97;16.65;;;;;;;10.63;59.67;101267.78;1766058;81;21109;-71
2022/02/17 00:29:39;;;;;;;31.65;15.03;;;;;;;10.63;59.70;101269.08;1766042;81;20981;-68
2022/02/17 00:32:07;;;;;;;24.30;15.03;;;;;;;10.62;59.64;101259.53;1765858;81;21018;-70
2022/02/17 00:34:34;;;;;;;26.82;15.28;;;;;;;10.62;59.64;101251.73;1766095;81;21001;-70
2022/02/17 00:37:03;;;;;;;31.23;15.48;;;;;;;10.62;59.63;101249.12;1776332;80;21041;-71
2022/02/17 00:39:32;;;;;;;30.17;15.35;;;;;;;10.62;59.58;101240.02;1786541;80;21022;-70
2022/02/17 00:41:59;;;;;;;24.75;14.63;;;;;;;10.60;59.67;101244.38;1779601;80;21443;-70
2022/02/17 00:44:26;;;;;;;27.82;15.13;;;;;;;10.59;59.68;101246.59;1786243;79;20982;-72
2022/02/17 00:46:55;;;;;;;29.75;15.75;;;;;;;10.57;59.72;101224.93;1825556;77;20994;-69
2022/02/17 00:49:24;;;;;;;26.90;15.28;;;;;;;10.57;59.75;101222.33;1825525;77;21505;-68
2022/02/17 00:51:51;;;;;;;24.07;13.80;;;;;;;10.56;59.75;101218.86;1825579;78;21457;-69
2022/02/17 00:54:19;;;;;;;28.45;15.55;;;;;;;10.55;59.74;101213.69;1812083;78;21040;-69
2022/02/17 00:56:45;;;;;;;27.93;15.63;;;;;;;10.54;59.89;101209.34;1825713;77;20954;-70
2022/02/17 00:59:12;;;;;;;31.17;15.32;;;;;;;10.54;59.91;101215.84;1825215;78;21025;-72
2022/02/17 01:01:40;;;;;;;24.40;14.58;;;;;;;10.51;59.99;101210.24;1825406;77;21018;-69
2022/02/17 01:04:07;;;;;;;25.00;15.68;;;;;;;10.51;60.05;101211.98;1825514;78;21009;-68
2022/02/17 01:06:38;;;;;;;24.47;14.47;;;;;;;10.50;60.16;101214.17;1825517;77;21010;-69
2022/02/17 01:09:02;;;;;;;25.95;14.60;;;;;;;10.49;60.21;101216.34;1813684;78;21598;-70
2022/02/17 01:11:28;;;;;;;30.27;15.03;;;;;;;10.49;60.23;101209.84;1825704;78;21466;-74
2022/02/17 01:13:56;;;;;;;25.82;15.28;;;;;;;10.49;60.33;101225.45;1825545;77;21066;-69
2022/02/17 01:16:24;;;;;;;30.55;15.30;;;;;;;10.50;60.39;101228.48;1818405;77;21040;-69
2022/02/17 01:18:52;;;;;;;29.20;14.75;;;;;;;10.52;60.32;101218.48;1825383;78;20973;-72
2022/02/17 01:21:20;;;;;;;29.85;14.95;;;;;;;10.52;60.25;101213.28;1825483;77;21005;-69
2022/02/17 01:23:48;;;;;;;32.65;14.83;;;;;;;10.53;60.29;101212.84;1825490;78;21084;-70
2022/02/17 01:26:14;;;;;;;29.00;15.18;;;;;;;10.55;60.25;101209.78;1825506;77;21024;-70
2022/02/17 01:28:43;;;;;;;30.68;15.53;;;;;;;10.56;60.20;101203.24;1820696;77;21029;-70
2022/02/17 01:31:10;;;;;;;26.73;15.48;;;;;;;10.55;60.17;101203.27;1825470;78;21006;-70
2022/02/17 01:33:37;;;;;;;24.40;14.65;;;;;;;10.56;60.23;101201.08;1825650;77;21461;-69
2022/02/17 01:36:08;;;;;;;29.05;14.40;;;;;;;10.56;60.19;101195.44;1820457;77;20970;-72
2022/02/17 01:38:38;;;;;;;26.43;14.53;;;;;;;10.59;60.18;101198.44;1829240;77;20958;-73
2022/02/17 01:41:06;;;;;;;30.57;14.70;;;;;;;10.58;60.10;101189.77;1829120;78;21013;-69
2022/02/17 01:43:34;;;;;;;33.05;14.80;;;;;;;10.59;60.02;101196.67;1828736;78;20998;-70
2022/02/17 01:46:02;;;;;;;30.02;14.30;;;;;;;10.59;60.07;101199.74;1828816;77;21009;-75
2022/02/17 01:48:29;;;;;;;26.00;14.18;;;;;;;10.58;60.08;101187.60;1828959;78;21474;-69
2022/02/17 01:50:56;;;;;;;26.87;15.05;;;;;;;10.58;60.08;101185.86;1829045;77;20986;-69
2022/02/17 01:53:23;;;;;;;24.70;14.28;;;;;;;10.58;60.14;101187.60;1829149;77;21020;-68
2022/02/17 01:55:53;;;;;;;27.50;14.80;;;;;;;10.58;60.13;101190.20;1800996;77;21005;-69
2022/02/17 01:58:19;;;;;;;35.33;15.72;;;;;;;10.57;60.16;101189.33;1829150;78;21001;-70
2022/02/17 02:00:46;;;;;;;31.45;14.95;;;;;;;10.57;60.19;101178.09;1828987;77;21453;-75
2022/02/17 02:03:13;;;;;;;26.73;15.03;;;;;;;10.57;60.15;101178.09;1829000;78;21486;-69
2022/02/17 02:05:50;;;;;;;32.08;14.68;;;;;;;10.56;60.07;101168.55;1764190;81;21485;-73
2022/02/17 02:08:17;;;;;;;29.55;15.32;;;;;;;10.56;60.10;101163.34;1764002;81;20982;-70
2022/02/17 02:10:44;;;;;;;29.85;14.20;;;;;;;10.55;60.06;101159.88;1764152;81;21099;-69
2022/02/17 02:13:10;;;;;;;28.47;14.87;;;;;;;10.56;60.06;101168.55;1763959;80;21521;-69
2022/02/17 02:15:49;;;;;;;24.75;13.98;;;;;;;10.56;60.09;101153.80;1715416;84;21018;-71
2022/02/17 02:18:18;;;;;;;27.52;14.68;;;;;;;10.58;60.05;101162.87;1715600;83;21001;-74
2022/02/17 02:20:51;;;;;;;34.43;15.53;;;;;;;10.60;60.10;101166.31;1711976;84;21489;-72
2022/02/17 02:23:19;;;;;;;28.60;14.55;;;;;;;10.59;60.07;101152.44;1689817;84;21013;-70
2022/02/17 02:25:49;;;;;;;32.50;15.53;;;;;;;10.59;60.05;101145.93;1709708;84;21068;-69
2022/02/17 02:28:20;;;;;;;26.62;14.15;;;;;;;10.59;60.11;101154.20;1715614;84;21492;-72
2022/02/17 02:30:47;;;;;;;;;;;;;;;10.58;60.09;101153.77;1655224;85;21021;-73
2022/02/17 02:33:15;;;;;;;32.48;14.18;;;;;;;10.57;60.18;101154.67;1652860;85;20126;-71
2022/02/17 02:35:43;;;;;;;25.25;14.93;;;;;;;10.56;60.31;101147.30;1652984;85;20999;-69
2022/02/17 02:38:10;;;;;;;31.90;16.12;;;;;;;10.57;60.28;101143.80;1634767;86;21044;-69
2022/02/17 02:40:37;;;;;;;35.17;14.98;;;;;;;10.58;60.26;101135.55;1629535;87;21129;-68
2022/02/17 02:43:05;;;;;;;29.05;14.15;;;;;;;10.58;60.24;101136.86;1630738;85;21089;-69
2022/02/17 02:45:32;;;;;;;27.30;13.28;;;;;;;10.58;60.21;101127.75;1651603;87;21005;-69
2022/02/17 02:48:08;;;;;;;27.32;15.18;;;;;;;10.57;60.25;101124.28;1606645;88;21087;-69
2022/02/17 02:50:35;;;;;;;32.83;13.98;;;;;;;10.58;60.21;101122.55;1650039;87;21072;-73
2022/02/17 02:53:03;;;;;;;26.48;14.18;;;;;;;10.58;60.27;101140.76;1651777;85;21121;-74
2022/02/17 02:55:29;;;;;;;31.45;15.95;;;;;;;10.58;60.22;101132.95;1606367;88;21127;-70
2022/02/17 02:57:58;;;;;;;28.20;14.10;;;;;;;10.59;60.27;101135.98;1645710;85;21069;-70
2022/02/17 03:00:26;;;;;;;22.32;13.48;;;;;;;10.60;60.25;101137.69;1651599;85;21056;-74
2022/02/17 03:02:52;;;;;;;29.30;15.15;;;;;;;10.59;60.21;101128.19;1651541;85;21080;-69
2022/02/17 03:05:19;;;;;;;29.18;15.28;;;;;;;10.59;60.25;101134.69;1651643;85;21034;-69
2022/02/17 03:07:47;;;;;;;29.65;14.73;;;;;;;10.60;60.30;101131.19;1651585;85;21053;-69
2022/02/17 03:10:15;;;;;;;30.05;14.47;;;;;;;10.60;60.23;101121.64;1651668;85;21060;-70
2022/02/17 03:12:42;;;;;;;33.42;14.93;;;;;;;10.62;60.25;101121.61;1596674;89;21092;-70
2022/02/17 03:15:10;;;;;;;29.00;15.08;;;;;;;10.64;60.21;101120.71;1594841;88;21089;-73
2022/02/17 03:17:36;;;;;;;29.55;14.93;;;;;;;10.65;60.08;101114.60;1647601;86;21558;-70
2022/02/17 03:20:07;;;;;;;29.65;14.83;;;;;;;10.65;60.14;101118.98;1647644;86;21035;-72
2022/02/17 03:22:32;;;;;;;27.48;14.98;;;;;;;10.66;60.10;101121.98;1633382;87;21058;-69
2022/02/17 03:25:01;;;;;;;33.10;14.68;;;;;;;10.65;60.07;101113.77;1646200;86;21094;-70
2022/02/17 03:27:29;;;;;;;31.07;15.58;;;;;;;10.64;60.14;101110.30;1661328;85;21499;-70
2022/02/17 03:29:57;;;;;;;36.48;15.85;;;;;;;10.65;60.07;101109.86;1672068;85;21053;-69
2022/02/17 03:32:24;;;;;;;27.93;14.20;;;;;;;10.64;60.08;101110.30;1677503;85;21097;-70
2022/02/17 03:34:51;;;;;;;28.42;14.73;;;;;;;10.64;60.07;101101.63;1762762;79;21021;-69
2022/02/17 03:37:20;;;;;;;26.68;14.83;;;;;;;10.65;60.05;101101.59;1777567;80;21099;-69
2022/02/17 03:39:48;;;;;;;30.80;15.60;;;;;;;10.66;60.09;101105.06;1731545;83;21001;-68
2022/02/17 03:42:16;;;;;;;28.15;14.85;;;;;;;10.68;60.11;101100.69;1667565;85;21528;-69
2022/02/17 03:44:43;;;;;;;29.70;15.00;;;;;;;10.70;60.07;101100.66;1667455;85;21033;-70
2022/02/17 03:47:14;;;;;;;;;;;;;;;10.69;60.08;101088.11;1620844;88;21032;-69
2022/02/17 03:49:54;;;;;;;29.00;14.98;;;;;;;10.70;60.17;101087.64;1611053;88;20135;-68
2022/02/17 03:52:22;;;;;;;26.00;15.43;;;;;;;10.69;60.16;101090.71;1618997;88;21048;-69
2022/02/17 03:54:51;;;;;;;31.45;16.17;;;;;;;10.69;60.24;101092.02;1616490;87;22289;-70
2022/02/17 03:57:19;;;;;;;26.48;16.73;;;;;;;10.69;60.21;101086.81;1619679;88;21020;-70
2022/02/17 03:59:47;;;;;;;24.90;15.08;;;;;;;10.69;60.23;101082.91;1617980;87;21060;-70
2022/02/17 04:02:15;;;;;;;26.97;15.40;;;;;;;10.69;60.34;101082.91;1617135;88;21075;-70
2022/02/17 04:04:41;;;;;;;37.93;17.05;;;;;;;10.68;60.34;101079.88;1616849;88;21039;-72
2022/02/17 04:07:08;;;;;;;24.65;15.58;;;;;;;10.69;60.44;101076.83;1617377;88;21065;-69
2022/02/17 04:09:36;;;;;;;27.87;14.35;;;;;;;10.70;60.37;101073.33;1616723;88;21089;-69
2022/02/17 04:12:06;;;;;;;31.15;15.72;;;;;;;10.69;60.39;101064.69;1615695;88;21016;-75
2022/02/17 04:14:35;;;;;;;28.80;15.48;;;;;;;10.70;60.43;101056.41;1618264;88;21116;-69
2022/02/17 04:17:03;;;;;;;27.77;14.70;;;;;;;10.69;60.51;101055.58;1597549;89;21528;-69
2022/02/17 04:19:34;;;;;;;27.22;14.65;;;;;;;10.69;60.50;101059.48;1615128;88;21586;-69
2022/02/17 04:22:08;;;;;;;37.60;16.45;;;;;;;10.69;60.47;101046.91;1617878;88;21608;-70
2022/02/17 04:24:41;;;;;;;30.00;16.35;;;;;;;10.68;60.48;101039.53;1616350;88;21031;-70
2022/02/17 04:27:10;;;;;;;33.05;16.75;;;;;;;10.65;60.60;101030.49;1596812;87;21489;-70
2022/02/17 04:29:40;;;;;;;28.57;14.75;;;;;;;10.67;60.53;101022.66;1617005;87;21111;-70
2022/02/17 04:32:08;;;;;;;24.52;14.38;;;;;;;10.67;60.50;101018.31;1616891;88;21071;-69
2022/02/17 04:34:36;;;;;;;31.97;14.95;;;;;;;10.69;60.46;101011.34;1616951;88;21032;-71
2022/02/17 04:37:08;;;;;;;30.95;15.55;;;;;;;10.69;60.40;101007.86;1616623;87;21092;-69
2022/02/17 04:39:35;;;;;;;28.57;15.68;;;;;;;10.70;60.42;101001.75;1614658;88;21130;-70
2022/02/17 04:42:21;;;;;;;28.50;16.12;;;;;;;10.69;60.50;101011.77;1610053;87;21041;-69
2022/02/17 04:44:56;;;;;;;35.92;16.95;;;;;;;10.69;60.51;101011.34;1673689;82;21065;-71
2022/02/17 04:47:25;;;;;;;32.70;15.93;;;;;;;10.71;60.50;100987.88;1786336;79;21004;-72
2022/02/17 04:49:52;;;;;;;25.95;14.95;;;;;;;10.72;60.38;100987.84;1786472;80;21542;-71
2022/02/17 04:52:21;;;;;;;31.97;15.43;;;;;;;10.72;60.35;100980.03;1825362;77;21070;-70
2022/02/17 04:54:49;;;;;;;38.38;17.67;;;;;;;10.73;60.28;100984.36;1825301;77;20975;-70
2022/02/17 04:57:16;;;;;;;27.75;15.78;;;;;;;10.72;60.28;100983.94;1825670;78;21010;-69
2022/02/17 04:59:44;;;;;;;34.53;15.90;;;;;;;10.72;60.22;100981.33;1825583;77;20998;-70
2022/02/17 05:02:11;;;;;;;29.92;16.82;;;;;;;10.73;60.25;100986.97;1825323;77;20973;-69
2022/02/17 05:04:52;;;;;;;34.95;16.85;;;;;;;10.72;60.20;100992.17;1821224;77;21021;-71
2022/02/17 05:07:24;;;;;;;29.30;16.40;;;;;;;10.72;60.20;100987.84;1825492;78;20997;-70
2022/02/17 05:09:51;;;;;;;32.25;15.72;;;;;;;10.70;60.32;100987.01;1794401;78;20967;-75
2022/02/17 05:12:20;;;;;;;30.77;16.37;;;;;;;10.70;60.32;100989.61;1820843;77;21063;-71
2022/02/17 05:14:47;;;;;;;38.20;16.85;;;;;;;10.71;60.32;100999.16;1819005;78;21062;-70
2022/02/17 05:17:15;;;;;;;30.62;15.88;;;;;;;10.71;60.32;100999.16;1820757;78;21030;-74
2022/02/17 05:19:42;;;;;;;31.90;16.45;;;;;;;10.70;60.32;101000.02;1825504;77;20954;-74
2022/02/17 05:22:10;;;;;;;35.48;16.82;;;;;;;10.71;60.34;101003.05;1820471;78;21017;-70
2022/02/17 05:24:56;;;;;;;33.25;16.80;;;;;;;10.73;60.33;100999.98;1825695;77;20958;-71
2022/02/17 05:27:22;;;;;;;30.48;15.85;;;;;;;10.71;60.35;101002.19;1825620;77;20958;-70
2022/02/17 05:29:51;;;;;;;35.28;16.02;;;;;;;10.71;60.40;100995.25;1820577;78;21457;-70
2022/02/17 05:32:40;;;;;;;33.85;17.12;;;;;;;10.72;60.30;100995.64;1749641;81;21060;-70
2022/02/17 05:35:10;;;;;;;29.02;17.02;;;;;;;10.74;60.41;100987.36;1644502;85;20991;-69
2022/02/17 05:37:41;;;;;;;34.27;16.05;;;;;;;10.76;60.34;100989.50;1639691;85;21124;-69
2022/02/17 05:40:18;;;;;;;34.03;15.68;;;;;;;10.76;60.34;100986.89;1560398;91;21118;-70
2022/02/17 05:42:45;;;;;;;32.38;15.83;;;;;;;10.77;60.38;100978.65;1570965;91;21147;-70
2022/02/17 05:45:13;;;;;;;31.15;14.85;;;;;;;10.77;60.40;100976.91;1571030;91;21074;-71
2022/02/17 05:47:41;;;;;;;29.77;15.05;;;;;;;10.78;60.30;100976.01;1542477;93;21069;-71
2022/02/17 05:50:09;;;;;;;33.63;15.15;;;;;;;10.78;60.31;100966.89;1542187;93;21588;-70
2022/02/17 05:52:36;;;;;;;31.37;15.28;;;;;;;10.77;60.36;100975.61;1557132;92;21196;-70
2022/02/17 05:55:04;;;;;;;34.20;15.85;;;;;;;10.75;60.38;100966.97;1542083;93;21092;-70
2022/02/17 05:57:30;;;;;;;29.50;15.48;;;;;;;10.74;60.46;100971.75;1555146;92;21056;-71
2022/02/17 05:59:58;;;;;;;32.03;15.58;;;;;;;10.75;60.55;100969.58;1556459;92;21087;-71
2022/02/17 06:02:28;;;;;;;31.42;16.30;;;;;;;10.75;60.48;100963.07;1557172;92;21070;-75
2022/02/17 06:04:54;;;;;;;29.87;16.10;;;;;;;10.76;60.47;100967.84;1557192;92;21010;-71
2022/02/17 06:07:21;;;;;;;31.42;15.05;;;;;;;10.76;60.56;100966.07;1537079;93;21580;-69
2022/02/17 06:09:48;;;;;;;33.45;15.03;;;;;;;10.77;60.51;100963.89;1545521;92;21102;-69
2022/02/17 06:12:15;;;;;;;24.50;15.38;;;;;;;10.77;60.48;100962.59;1549737;91;21611;-69
2022/02/17 06:14:41;;;;;;;30.50;14.68;;;;;;;10.75;60.48;100959.16;1542469;93;21569;-69
2022/02/17 06:17:09;;;;;;;32.42;16.32;;;;;;;10.73;60.59;100955.73;1587758;88;21109;-69
2022/02/17 06:19:35;;;;;;;28.32;14.83;;;;;;;10.73;60.81;100955.73;1656833;85;21020;-69
2022/02/17 06:22:04;;;;;;;31.15;15.63;;;;;;;10.75;60.98;100953.95;1658683;85;21117;-72
2022/02/17 06:24:32;;;;;;;26.85;14.43;;;;;;;10.82;61.04;100952.10;1658680;85;21023;-68
2022/02/17 06:26:58;;;;;;;30.02;14.85;;;;;;;10.89;61.12;100940.22;1659052;85;21031;-68
2022/02/17 06:29:26;;;;;;;25.08;13.62;;;;;;;11.03;60.78;100943.84;1657860;85;21086;-72
2022/02/17 06:31:54;;;;;;;20.20;14.00;;;;;;;11.14;60.58;100937.54;1731290;78;21041;-67
2022/02/17 06:34:20;;;;;;;24.30;13.72;;;;;;;11.25;60.19;100932.94;1796261;78;21091;-68
2022/02/17 06:36:49;;;;;;;24.40;14.05;;;;;;;11.31;59.94;100930.20;1796163;78;21016;-69
2022/02/17 06:39:16;;;;;;;23.45;13.75;;;;;;;11.34;59.78;100926.67;1817150;78;21017;-69
2022/02/17 06:41:43;;;;;;;27.27;13.38;;;;;;;11.35;59.73;100929.70;1824893;78;21037;-67
2022/02/17 06:44:10;;;;;;;26.40;13.85;;;;;;;11.32;59.67;100922.81;1825491;77;21080;-68
2022/02/17 06:46:38;;;;;;;25.75;12.95;;;;;;;11.32;59.60;100918.90;1825446;77;21018;-66
2022/02/17 06:49:06;;;;;;;22.80;12.40;;;;;;;11.31;59.54;100915.03;1818358;77;21002;-70
2022/02/17 06:51:33;;;;;;;32.10;14.20;;;;;;;11.28;59.63;100917.25;1825759;77;20982;-67
2022/02/17 06:54:00;;;;;;;24.05;13.80;;;;;;;11.26;59.66;100913.83;1825549;77;21040;-68
2022/02/17 06:56:27;;;;;;;26.73;13.65;;;;;;;11.24;59.76;100913.00;1825387;77;21068;-67
2022/02/17 06:58:53;;;;;;;28.27;15.15;;;;;;;11.25;59.92;100919.91;1825462;77;21009;-67
2022/02/17 07:01:23;;;;;;;28.95;14.85;;;;;;;11.26;59.82;100919.03;1825702;78;20973;-67
2022/02/17 07:03:50;;;;;;;29.32;14.13;;;;;;;11.28;59.74;100918.56;1825610;77;20973;-68
2022/02/17 07:06:17;;;;;;;31.42;14.58;;;;;;;11.28;59.64;100912.05;1825699;78;20986;-69
2022/02/17 07:08:44;;;;;;;27.98;13.93;;;;;;;11.27;59.61;100907.71;1825841;78;20954;-68
2022/02/17 07:11:12;;;;;;;30.80;14.58;;;;;;;11.25;59.69;100900.38;1825397;77;21505;-72
2022/02/17 07:13:38;;;;;;;25.35;13.35;;;;;;;11.25;59.79;100893.86;1825608;78;21438;-67
2022/02/17 07:16:06;;;;;;;25.25;14.10;;;;;;;11.26;59.85;100889.08;1825469;77;21021;-73
2022/02/17 07:18:33;;;;;;;24.35;13.03;;;;;;;11.26;59.94;100884.31;1825391;77;21123;-68
2022/02/17 07:20:59;;;;;;;24.60;14.15;;;;;;;11.27;60.03;100877.75;1825715;77;20950;-74
2022/02/17 07:23:26;;;;;;;26.12;13.72;;;;;;;11.32;60.08;100885.03;1825783;78;21064;-68
2022/02/17 07:25:53;;;;;;;21.70;13.55;;;;;;;11.35;60.01;100874.52;1825635;77;20966;-68
2022/02/17 07:28:22;;;;;;;24.72;13.38;;;;;;;11.39;59.90;100876.20;1825707;78;21525;-68
2022/02/17 07:30:49;;;;;;;26.27;13.53;;;;;;;11.44;59.81;100865.64;1818781;77;21012;-67
2022/02/17 07:33:17;;;;;;;23.10;13.13;;;;;;;11.47;59.77;100861.68;1825616;78;20986;-68
2022/02/17 07:35:44;;;;;;;29.18;14.20;;;;;;;11.48;59.66;100856.42;1825291;77;21005;-69
2022/02/17 07:38:12;;;;;;;24.52;13.05;;;;;;;11.52;59.57;100853.77;1819575;78;21064;-68
2022/02/17 07:40:40;;;;;;;25.40;12.88;;;;;;;11.52;59.51;100836.82;1801289;78;20982;-72
2022/02/17 07:43:08;;;;;;;21.85;12.82;;;;;;;11.54;59.47;100841.55;1801306;78;21496;-66
2022/02/17 07:45:39;;;;;;;20.10;12.53;;;;;;;11.55;59.46;100840.64;1801480;79;21017;-67
2022/02/17 07:48:06;;;;;;;26.25;14.45;;;;;;;11.56;59.41;100838.45;1801102;78;20986;-68
2022/02/17 07:50:33;;;;;;;27.30;13.72;;;;;;;11.58;59.41;100837.98;1794430;78;21022;-69
2022/02/17 07:53:01;;;;;;;27.45;13.08;;;;;;;11.61;59.34;100828.76;1801269;80;21048;-67
2022/02/17 07:55:28;;;;;;;27.42;13.30;;;;;;;11.61;59.28;100823.11;1801407;78;20985;-67
2022/02/17 07:58:02;;;;;;;27.35;14.28;;;;;;;11.64;59.22;100831.30;1801322;80;20982;-67
2022/02/17 08:00:28;;;;;;;32.98;14.05;;;;;;;11.66;59.10;100824.30;1801152;80;21045;-67
2022/02/17 08:02:57;;;;;;;22.13;12.75;;;;;;;11.67;59.12;100820.82;1794044;78;21044;-72
2022/02/17 08:05:23;;;;;;;24.80;12.90;;;;;;;11.69;59.11;100816.42;1785286;78;20958;-70
2022/02/17 08:07:50;;;;;;;27.35;14.73;;;;;;;11.70;59.07;100815.55;1783084;78;21037;-68
2022/02/17 08:10:19;;;;;;;25.43;12.33;;;;;;;11.72;59.09;100817.22;1791700;78;21033;-67
2022/02/17 08:12:47;;;;;;;22.98;13.22;;;;;;;11.74;59.02;100813.27;1795614;78;20994;-71
2022/02/17 08:15:13;;;;;;;24.67;12.82;;;;;;;11.76;59.02;100806.27;1793032;78;20942;-68
2022/02/17 08:17:41;;;;;;;24.23;13.65;;;;;;;11.77;58.96;100802.30;1787909;80;20989;-68
2022/02/17 08:20:11;;;;;;;24.85;12.73;;;;;;;11.79;58.91;100799.20;1792403;80;21013;-67
2022/02/17 08:22:38;;;;;;;20.45;13.00;;;;;;;11.81;58.93;100803.11;1789447;78;21507;-71
2022/02/17 08:25:05;;;;;;;22.15;12.30;;;;;;;11.84;58.85;100801.70;1793426;78;21052;-67
2022/02/17 08:27:34;;;;;;;23.42;13.05;;;;;;;11.85;58.81;100804.73;1786312;78;20997;-70
2022/02/17 08:30:01;;;;;;;24.27;13.75;;;;;;;11.87;58.81;100804.25;1785323;80;20998;-68
2022/02/17 08:32:35;;;;;;;33.08;14.13;;;;;;;11.90;58.84;100810.66;1790042;80;21009;-68
2022/02/17 08:35:02;;;;;;;27.27;13.95;;;;;;;11.92;58.87;100809.73;1788011;80;21032;-67
2022/02/17 08:37:29;;;;;;;22.73;14.87;;;;;;;11.96;58.73;100813.11;1797256;78;21449;-67
2022/02/17 08:39:57;;;;;;;25.80;14.70;;;;;;;11.99;58.75;100815.18;1799201;77;21049;-66
2022/02/17 08:42:23;;;;;;;28.00;13.75;;;;;;;12.03;58.60;100819.89;1809354;77;21060;-68
2022/02/17 08:44:49;;;;;;;21.97;14.10;;;;;;;12.07;58.59;100805.88;1807776;77;21020;-67
2022/02/17 08:47:17;;;;;;;31.15;14.98;;;;;;;12.11;58.48;100797.06;1814553;79;21864;-68
2022/02/17 08:49:44;;;;;;;29.40;14.23;;;;;;;12.14;58.40;100803.05;1813662;77;21006;-74
2022/02/17 08:52:11;;;;;;;29.20;14.73;;;;;;;12.16;58.39;100797.78;1816960;77;21021;-68
2022/02/17 08:54:39;;;;;;;27.42;13.70;;;;;;;12.20;58.22;100787.66;1779014;80;21016;-66
2022/02/17 08:57:06;;;;;;;37.05;15.23;;;;;;;12.22;58.18;100783.25;1766166;80;21061;-68
2022/02/17 08:59:32;;;;;;;29.98;12.95;;;;;;;12.24;58.11;100781.49;1780080;80;21006;-72
2022/02/17 09:01:59;;;;;;;25.02;14.90;;;;;;;12.26;58.07;100775.78;1778235;80;21010;-67
2022/02/17 09:04:27;;;;;;;20.77;13.83;;;;;;;12.28;58.03;100768.77;1759937;80;21493;-67
2022/02/17 09:06:54;;;;;;;25.62;13.70;;;;;;;12.29;57.90;100767.85;1766249;80;20969;-68
2022/02/17 09:09:21;;;;;;;30.00;14.98;;;;;;;12.30;57.99;100753.92;1766309;80;21046;-72
2022/02/17 09:11:48;;;;;;;29.00;15.43;;;;;;;12.34;57.90;100749.02;1780494;80;21015;-72
2022/02/17 09:14:15;;;;;;;29.05;13.93;;;;;;;12.35;57.89;100744.19;1766078;80;20987;-70
2022/02/17 09:16:42;;;;;;;28.23;14.87;;;;;;;12.39;57.87;100737.98;1763505;80;20983;-70
2022/02/17 09:19:08;;;;;;;25.50;14.33;;;;;;;12.43;57.84;100730.47;1765362;80;21486;-70
2022/02/17 09:21:35;;;;;;;27.40;15.03;;;;;;;12.49;57.77;100721.14;1739494;81;21510;-68
2022/02/17 09:24:04;;;;;;;29.95;15.28;;;;;;;12.53;57.64;100708.41;1781558;79;20979;-72
2022/02/17 09:26:33;;;;;;;29.12;14.95;;;;;;;12.56;57.55;100699.20;1766279;80;21015;-73
2022/02/17 09:29:00;;;;;;;24.65;14.05;;;;;;;12.59;57.44;100691.73;1743262;82;20982;-69
2022/02/17 09:31:26;;;;;;;22.87;13.90;;;;;;;12.60;57.36;100690.36;1764729;80;20985;-71
2022/02/17 09:33:56;;;;;;;20.95;13.85;;;;;;;12.61;57.28;100682.92;1771106;80;20996;-70
2022/02/17 09:36:27;;;;;;;24.92;14.47;;;;;;;12.60;57.29;100669.48;1772343;80;21012;-73
2022/02/17 09:38:55;;;;;;;22.17;14.33;;;;;;;12.62;57.18;100662.91;1747565;80;21070;-72
2022/02/17 09:41:21;;;;;;;26.33;15.08;;;;;;;12.60;57.17;100657.73;1746320;81;20997;-71
2022/02/17 09:43:50;;;;;;;26.27;14.50;;;;;;;12.60;57.21;100647.73;1780845;79;21002;-77
2022/02/17 09:46:22;;;;;;;22.32;14.68;;;;;;;12.59;57.35;100652.09;1819803;77;21013;-65
2022/02/17 09:48:55;;;;;;;21.82;14.18;;;;;;;12.58;57.39;100627.36;1815045;77;21513;-69
2022/02/17 09:51:27;;;;;;;23.87;14.35;;;;;;;12.57;57.39;100619.97;1824696;77;20978;-67
2022/02/17 09:53:54;;;;;;;24.63;14.70;;;;;;;12.58;57.46;100620.39;1789437;78;21053;-70
2022/02/17 09:56:23;;;;;;;25.88;14.43;;;;;;;12.58;57.47;100616.47;1783691;78;21005;-70
2022/02/17 09:58:51;;;;;;;24.77;14.85;;;;;;;12.59;57.52;100608.20;1782455;79;20998;-67
2022/02/17 10:01:26;;;;;;;26.65;14.55;;;;;;;12.59;57.47;100601.20;1788501;78;21001;-68
2022/02/17 10:04:16;;;;;;;25.30;14.70;;;;;;;12.59;57.49;100588.14;1685472;83;21199;-71
2022/02/17 10:09:40;;;;;;;26.30;15.60;;;;;;;12.60;57.50;100575.52;1608284;88;21075;-70
2022/02/17 10:12:09;;;;;;;28.27;14.95;;;;;;;12.63;57.47;100571.95;1533698;93;21045;-70
2022/02/17 10:14:40;;;;;;;23.20;14.30;;;;;;;12.64;57.42;100566.67;1534348;93;21103;-68
2022/02/17 10:17:09;;;;;;;26.12;14.75;;;;;;;12.66;57.32;100564.87;1523396;93;21022;-70
2022/02/17 10:19:47;;;;;;;26.02;14.90;;;;;;;12.67;57.41;100565.73;1523695;93;21931;-73
2022/02/17 10:22:30;;;;;;;21.50;15.10;;;;;;;12.67;57.34;100553.54;1490012;95;21164;-71
2022/02/17 10:24:54;;;;;;;28.35;15.50;;;;;;;12.70;57.32;100553.42;1496059;94;21104;-73
2022/02/17 10:27:28;;;;;;;30.72;15.88;;;;;;;12.73;57.39;100552.03;1494528;96;21075;-69
2022/02/17 10:30:10;;;;;;;27.40;15.45;;;;;;;12.78;57.28;100542.70;1488734;96;21142;-68
2022/02/17 10:33:00;;;;;;;32.35;16.48;;;;;;;12.81;57.09;100538.25;1507662;95;21134;-72
2022/02/17 10:35:28;;;;;;;27.65;17.12;;;;;;;12.84;57.11;100532.91;1460834;97;21087;-72
2022/02/17 10:38:00;;;;;;;30.10;17.30;;;;;;;12.89;57.11;100525.78;1457515;97;21148;-68
2022/02/17 10:40:32;;;;;;;23.55;15.85;;;;;;;12.95;56.85;100521.66;1443182;98;21184;-69
2022/02/17 10:43:11;;;;;;;22.35;14.90;;;;;;;12.97;56.66;100521.14;1458675;98;21164;-69
2022/02/17 10:45:42;;;;;;;34.33;16.05;;;;;;;12.98;56.46;100515.00;1456441;96;21095;-71
2022/02/17 10:48:22;;;;;;;27.27;15.03;;;;;;;12.96;56.31;100511.59;1453692;98;21297;-69
2022/02/17 10:51:08;;;;;;;25.77;16.17;;;;;;;12.89;56.38;100502.28;1451093;98;21118;-71
2022/02/17 10:53:42;;;;;;;22.22;14.18;;;;;;;12.82;56.58;100500.78;1436855;99;21563;-70
2022/02/17 10:56:12;;;;;;;29.77;15.08;;;;;;;12.79;56.68;100490.91;1455375;97;21120;-71
2022/02/17 11:01:13;;;;;;;28.62;14.55;;;;;;;12.72;56.86;100488.09;1430392;98;21135;-69
2022/02/17 11:03:40;;;;;;;28.70;15.20;;;;;;;12.68;56.85;100482.13;1419443;100;21636;-69
2022/02/17 11:06:09;;;;;;;28.47;16.15;;;;;;;12.64;56.91;100483.14;1455088;96;21083;-70
2022/02/17 11:08:40;;;;;;;25.77;16.45;;;;;;;12.62;57.01;100474.52;1502465;94;21126;-68
2022/02/17 11:11:07;;;;;;;28.62;16.77;;;;;;;12.62;57.20;100479.73;1516452;93;21133;-71
2022/02/17 11:13:33;;;;;;;29.77;17.10;;;;;;;12.66;57.08;100470.89;1521517;93;21083;-70
2022/02/17 11:16:04;;;;;;;26.70;16.30;;;;;;;12.67;57.14;100467.39;1545095;91;21120;-72
2022/02/17 11:18:32;;;;;;;35.45;18.57;;;;;;;12.70;57.05;100458.13;1545809;91;21085;-76
2022/02/17 11:21:01;;;;;;;30.40;17.45;;;;;;;12.75;56.99;100442.31;1560376;90;21139;-69